createdAt,value
2023-01-28T00:02:05.750Z,7.67
2023-01-28T00:04:32.954Z,7.43
2023-01-28T00:07:00.119Z,7.37
2023-01-28T00:09:27.331Z,8.63
2023-01-28T00:11:54.585Z,8.63
2023-01-28T00:14:21.807Z,6.77
2023-01-28T00:16:48.965Z,7.27
2023-01-28T00:19:16.177Z,6.53
2023-01-28T00:21:43.414Z,7.93
2023-01-28T00:24:10.661Z,6.17
2023-01-28T00:26:37.904Z,5.40
2023-01-28T00:29:05.148Z,9.20
2023-01-28T00:31:32.500Z,6.93
2023-01-28T00:33:59.839Z,9.47
2023-01-28T00:36:27.314Z,6.57
2023-01-28T00:38:56.022Z,7.33
2023-01-28T00:41:24.190Z,5.63
2023-01-28T00:43:52.020Z,6.03
2023-01-28T00:46:19.712Z,7.90
2023-01-28T00:48:47.551Z,7.30
2023-01-28T00:51:17.132Z,8.37
2023-01-28T00:53:44.719Z,8.87
2023-01-28T00:56:13.789Z,9.87
2023-01-28T00:58:41.299Z,5.53
2023-01-28T01:01:12.880Z,5.87
2023-01-28T01:03:41.155Z,5.30
2023-01-28T01:06:09.069Z,5.70
2023-01-28T01:08:40.000Z,7.00
2023-01-28T01:11:08.046Z,5.77
2023-01-28T01:13:35.366Z,8.97
2023-01-28T01:16:06.822Z,5.07
2023-01-28T01:18:34.515Z,6.30
2023-01-28T01:21:01.988Z,6.73
2023-01-28T01:23:30.199Z,7.30
2023-01-28T01:25:57.458Z,6.23
2023-01-28T01:28:24.783Z,7.30
2023-01-28T01:30:53.177Z,5.00
2023-01-28T01:33:20.360Z,4.63
2023-01-28T01:35:54.777Z,6.17
2023-01-28T01:38:22.077Z,5.80
2023-01-28T01:40:51.626Z,6.57
2023-01-28T01:43:22.965Z,6.90
2023-01-28T01:45:55.224Z,7.13
2023-01-28T01:48:25.758Z,6.50
2023-01-28T01:50:59.071Z,4.80
2023-01-28T01:53:27.574Z,8.07
2023-01-28T01:55:57.178Z,7.33
2023-01-28T01:58:27.040Z,6.03
2023-01-28T02:00:54.223Z,6.17
2023-01-28T02:03:26.547Z,4.90
2023-01-28T02:05:53.895Z,7.23
2023-01-28T02:08:21.100Z,7.80
2023-01-28T02:11:02.389Z,5.93
2023-01-28T02:13:31.776Z,6.10
2023-01-28T02:16:00.461Z,5.70
2023-01-28T02:18:27.682Z,9.20
2023-01-28T02:21:00.857Z,6.57
2023-01-28T02:23:43.402Z,8.33
2023-01-28T02:26:10.592Z,6.73
2023-01-28T02:28:52.947Z,5.20
2023-01-28T02:31:23.229Z,8.00
2023-01-28T02:34:09.141Z,8.47
2023-01-28T02:36:44.687Z,6.67
2023-01-28T02:39:19.332Z,9.20
2023-01-28T02:42:19.129Z,8.27
2023-01-28T02:44:46.314Z,6.70
2023-01-28T02:47:32.611Z,6.77
2023-01-28T02:50:01.905Z,6.50
2023-01-28T02:52:56.353Z,6.07
2023-01-28T02:55:23.498Z,6.67
2023-01-28T02:57:59.250Z,6.77
2023-01-28T03:00:41.756Z,6.47
2023-01-28T03:03:18.098Z,7.33
2023-01-28T03:06:03.392Z,6.07
2023-01-28T03:08:54.425Z,7.73
2023-01-28T03:11:40.642Z,6.13
2023-01-28T03:14:27.021Z,6.87
2023-01-28T03:17:13.983Z,6.23
2023-01-28T03:20:00.176Z,6.43
2023-01-28T03:22:48.448Z,6.70
2023-01-28T03:25:35.288Z,5.50
2023-01-28T03:28:23.153Z,4.23
2023-01-28T03:31:12.016Z,4.47
2023-01-28T03:33:58.208Z,5.27
2023-01-28T03:36:44.054Z,4.17
2023-01-28T03:39:11.270Z,5.53
2023-01-28T03:41:38.500Z,8.73
2023-01-28T03:44:24.659Z,5.77
2023-01-28T03:46:51.936Z,6.93
2023-01-28T03:49:19.109Z,8.23
2023-01-28T03:51:46.423Z,7.77
2023-01-28T03:54:14.018Z,6.30
2023-01-28T03:56:42.755Z,7.00
2023-01-28T03:59:09.920Z,7.10
2023-01-28T04:01:37.084Z,6.33
2023-01-28T04:04:04.369Z,8.87
2023-01-28T04:06:31.650Z,5.63
2023-01-28T04:09:01.824Z,7.03
2023-01-28T04:11:29.168Z,8.30
2023-01-28T04:13:56.395Z,7.87
2023-01-28T04:16:23.637Z,7.77
2023-01-28T04:18:51.053Z,9.37
2023-01-28T04:21:18.178Z,9.27
2023-01-28T04:23:45.388Z,7.20
2023-01-28T04:26:12.540Z,7.67
2023-01-28T04:28:39.713Z,7.97
2023-01-28T04:31:07.012Z,9.93
2023-01-28T04:33:34.199Z,6.63
2023-01-28T04:36:01.673Z,6.60
2023-01-28T04:38:29.862Z,6.77
2023-01-28T04:40:57.041Z,5.77
2023-01-28T04:43:24.312Z,9.67
2023-01-28T04:45:51.589Z,5.90
2023-01-28T04:48:18.818Z,6.77
2023-01-28T04:50:46.381Z,9.20
2023-01-28T04:53:13.586Z,7.37
2023-01-28T04:55:40.952Z,8.43
2023-01-28T04:58:08.148Z,8.23
2023-01-28T05:00:35.372Z,6.53
2023-01-28T05:03:02.602Z,6.13
2023-01-28T05:05:29.834Z,6.20
2023-01-28T05:07:58.269Z,7.43
2023-01-28T05:10:25.856Z,6.70
2023-01-28T05:12:53.069Z,7.00
2023-01-28T05:15:20.955Z,7.93
2023-01-28T05:17:48.455Z,7.90
2023-01-28T05:20:15.817Z,6.33
2023-01-28T05:22:43.283Z,8.20
2023-01-28T05:25:10.582Z,6.30
2023-01-28T05:27:38.041Z,9.97
2023-01-28T05:30:06.667Z,9.67
2023-01-28T05:32:34.224Z,8.00
2023-01-28T05:35:01.648Z,9.40
2023-01-28T05:37:29.958Z,9.37
2023-01-28T05:39:57.187Z,8.60
2023-01-28T05:42:24.399Z,9.50
2023-01-28T05:44:51.548Z,10.77
2023-01-28T05:47:18.892Z,6.93
2023-01-28T05:49:46.548Z,8.10
2023-01-28T05:52:13.745Z,5.80
2023-01-28T05:54:40.963Z,5.73
2023-01-28T05:57:08.322Z,8.10
2023-01-28T05:59:35.478Z,8.83
2023-01-28T06:02:02.767Z,7.73
2023-01-28T06:04:30.130Z,9.10
2023-01-28T06:06:57.318Z,6.93
2023-01-28T06:09:24.551Z,6.77
2023-01-28T06:11:51.847Z,6.83
2023-01-28T06:14:19.154Z,8.00
2023-01-28T06:16:46.326Z,6.43
2023-01-28T06:19:13.565Z,6.63
2023-01-28T06:21:40.771Z,7.20
2023-01-28T06:24:08.002Z,7.97
2023-01-28T06:26:35.228Z,7.93
2023-01-28T06:29:02.397Z,7.63
2023-01-28T06:31:29.694Z,8.47
2023-01-28T06:33:56.924Z,11.27
2023-01-28T06:36:24.433Z,6.23
2023-01-28T06:38:51.611Z,8.27
2023-01-28T06:41:18.808Z,6.63
2023-01-28T06:43:45.999Z,6.90
2023-01-28T06:46:13.306Z,8.97
2023-01-28T06:48:40.558Z,7.67
2023-01-28T06:51:07.779Z,9.17
2023-01-28T06:53:35.000Z,8.87
2023-01-28T06:56:02.284Z,8.47
2023-01-28T06:58:29.556Z,7.07
2023-01-28T07:00:56.899Z,7.50
2023-01-28T07:03:24.142Z,10.37
2023-01-28T07:05:51.299Z,8.10
2023-01-28T07:08:18.589Z,9.23
2023-01-28T07:10:45.779Z,8.27
2023-01-28T07:13:12.934Z,7.63
2023-01-28T07:15:40.117Z,7.93
2023-01-28T07:18:07.386Z,12.50
2023-01-28T07:20:34.681Z,8.27
2023-01-28T07:23:01.866Z,12.70
2023-01-28T07:25:29.067Z,9.53
2023-01-28T07:27:56.248Z,9.67
2023-01-28T07:30:24.242Z,9.30
2023-01-28T07:32:58.346Z,7.37
2023-01-28T07:35:25.764Z,8.93
2023-01-28T07:38:00.124Z,8.37
2023-01-28T07:40:28.132Z,9.30
2023-01-28T07:42:56.714Z,10.10
2023-01-28T07:45:25.023Z,8.33
2023-01-28T07:47:59.781Z,12.60
2023-01-28T07:50:28.363Z,8.83
2023-01-28T07:52:59.586Z,11.13
2023-01-28T07:55:29.478Z,9.17
2023-01-28T07:57:59.678Z,10.00
2023-01-28T08:00:27.772Z,11.53
2023-01-28T08:02:58.925Z,8.13
2023-01-28T08:05:27.677Z,9.03
2023-01-28T08:07:54.980Z,8.97
2023-01-28T08:10:22.377Z,13.13
2023-01-28T08:12:53.627Z,11.63
2023-01-28T08:15:20.863Z,9.97
2023-01-28T08:17:48.071Z,11.50
2023-01-28T08:20:15.978Z,13.17
2023-01-28T08:22:43.366Z,10.23
2023-01-28T08:25:10.615Z,10.63
2023-01-28T08:27:37.833Z,9.67
2023-01-28T08:30:05.437Z,12.13
2023-01-28T08:32:32.679Z,9.83
2023-01-28T08:35:00.334Z,10.57
2023-01-28T08:37:27.506Z,10.37
2023-01-28T08:39:54.681Z,8.87
2023-01-28T08:42:21.887Z,9.23
2023-01-28T08:44:49.058Z,7.67
2023-01-28T08:47:16.217Z,12.53
2023-01-28T08:49:43.351Z,7.27
2023-01-28T08:52:11.180Z,9.17
2023-01-28T08:54:38.315Z,10.07
2023-01-28T08:57:05.509Z,9.13
2023-01-28T08:59:32.705Z,6.30
2023-01-28T09:01:59.929Z,9.07
2023-01-28T09:04:28.522Z,10.93
2023-01-28T09:06:55.793Z,8.63
2023-01-28T09:09:22.989Z,8.57
2023-01-28T09:11:50.158Z,8.37
2023-01-28T09:14:17.350Z,7.37
2023-01-28T09:16:44.539Z,13.40
2023-01-28T09:19:11.837Z,10.93
2023-01-28T09:21:40.478Z,10.50
2023-01-28T09:24:11.632Z,10.40
2023-01-28T09:26:38.908Z,7.73
2023-01-28T09:29:06.085Z,7.80
2023-01-28T09:31:33.242Z,7.60
2023-01-28T09:34:00.524Z,8.93
2023-01-28T09:36:28.974Z,7.93
2023-01-28T09:38:56.161Z,8.67
2023-01-28T09:41:30.496Z,8.67
2023-01-28T09:44:24.130Z,6.10
2023-01-28T09:46:51.893Z,7.53
2023-01-28T09:49:28.729Z,7.60
2023-01-28T09:51:56.411Z,4.70
2023-01-28T09:54:29.441Z,5.87
2023-01-28T09:57:05.470Z,5.43
2023-01-28T09:59:34.714Z,5.17
2023-01-28T10:02:05.750Z,5.57
2023-01-28T10:04:35.980Z,6.03
2023-01-28T10:07:12.584Z,12.33
2023-01-28T10:09:58.472Z,5.00
2023-01-28T10:12:32.644Z,7.53
2023-01-28T10:15:31.107Z,9.37
2023-01-28T10:18:17.032Z,7.23
2023-01-28T10:20:48.488Z,13.57
2023-01-28T10:23:34.003Z,6.87
2023-01-28T10:26:03.083Z,10.40
2023-01-28T10:28:30.960Z,7.90
2023-01-28T10:30:58.148Z,9.40
2023-01-28T10:33:28.172Z,8.60
2023-01-28T10:35:56.303Z,8.13
2023-01-28T10:38:27.279Z,6.20
2023-01-28T10:40:56.737Z,7.53
2023-01-28T10:43:25.326Z,7.77
2023-01-28T10:46:11.487Z,9.53
2023-01-28T10:48:42.333Z,6.67
2023-01-28T10:51:09.680Z,6.83
2023-01-28T10:53:40.900Z,7.07
2023-01-28T10:56:09.650Z,8.47
2023-01-28T10:58:37.895Z,6.30
2023-01-28T11:01:07.466Z,8.83
2023-01-28T11:03:35.794Z,8.70
2023-01-28T11:06:03.802Z,11.37
2023-01-28T11:08:31.895Z,7.33
2023-01-28T11:10:59.337Z,8.17
2023-01-28T11:13:30.982Z,9.93
2023-01-28T11:15:58.892Z,8.67
2023-01-28T11:18:27.984Z,7.20
2023-01-28T11:20:59.802Z,4.90
2023-01-28T11:23:28.349Z,7.73
2023-01-28T11:26:21.849Z,6.63
2023-01-28T11:28:49.123Z,6.27
2023-01-28T11:31:17.682Z,6.40
2023-01-28T11:33:53.443Z,7.40
2023-01-28T11:36:22.251Z,8.13
2023-01-28T11:38:54.038Z,9.07
2023-01-28T11:41:34.979Z,6.20
2023-01-28T11:44:20.716Z,7.43
2023-01-28T11:47:00.316Z,7.90
2023-01-28T11:49:33.482Z,8.03
2023-01-28T11:52:07.924Z,5.77
2023-01-28T11:54:53.911Z,7.50
2023-01-28T11:57:30.937Z,7.57
2023-01-28T12:00:00.946Z,8.73
2023-01-28T12:02:28.097Z,7.80
2023-01-28T12:05:07.603Z,7.83
2023-01-28T12:07:55.664Z,6.97
2023-01-28T12:10:34.873Z,7.60
2023-01-28T12:13:05.176Z,6.57
2023-01-28T12:15:37.397Z,7.23
2023-01-28T12:18:10.862Z,6.37
2023-01-28T12:20:56.983Z,4.27
2023-01-28T12:23:40.485Z,8.63
2023-01-28T12:26:20.255Z,11.20
2023-01-28T12:29:02.782Z,13.83
2023-01-28T12:31:35.903Z,12.27
2023-01-28T12:34:03.158Z,13.43
2023-01-28T12:36:40.114Z,10.97
2023-01-28T12:39:10.373Z,16.33
2023-01-28T12:41:43.594Z,16.77
2023-01-28T12:44:13.198Z,3.93
2023-01-28T12:46:48.170Z,3.80
2023-01-28T12:49:21.249Z,3.23
2023-01-28T12:51:48.408Z,3.33
2023-01-28T12:54:34.273Z,4.83
2023-01-28T12:57:01.726Z,7.27
2023-01-28T12:59:40.619Z,12.87
2023-01-28T13:02:13.785Z,23.20
2023-01-28T13:04:53.588Z,45.77
2023-01-28T13:07:24.652Z,31.57
2023-01-28T13:09:59.445Z,22.27
2023-01-28T13:12:26.933Z,18.53
2023-01-28T13:14:54.590Z,10.17
2023-01-28T13:17:34.145Z,31.23
2023-01-28T13:20:01.795Z,10.63
2023-01-28T13:22:36.698Z,11.13
2023-01-28T13:25:33.509Z,11.20
2023-01-28T13:28:02.360Z,8.93
2023-01-28T13:30:31.228Z,12.00
2023-01-28T13:32:59.931Z,12.27
2023-01-28T13:35:40.505Z,11.27
2023-01-28T13:38:18.036Z,10.30
2023-01-28T13:40:54.029Z,8.87
2023-01-28T13:43:38.644Z,5.20
2023-01-28T13:46:27.552Z,9.10
2023-01-28T13:48:56.751Z,7.73
2023-01-28T13:51:35.232Z,9.43
2023-01-28T13:54:12.762Z,8.33
2023-01-28T13:56:56.090Z,8.40
2023-01-28T13:59:42.107Z,9.67
2023-01-28T14:02:24.541Z,8.80
2023-01-28T14:05:04.921Z,7.60
2023-01-28T14:07:41.784Z,10.13
2023-01-28T14:10:27.608Z,8.17
2023-01-28T14:13:03.927Z,7.57
2023-01-28T14:15:50.281Z,10.77
2023-01-28T14:18:25.212Z,10.40
2023-01-28T14:20:54.743Z,18.73
2023-01-28T14:23:23.790Z,17.47
2023-01-28T14:25:56.665Z,14.97
2023-01-28T14:28:35.538Z,21.17
2023-01-28T14:31:16.101Z,14.10
2023-01-28T14:33:44.199Z,16.63
2023-01-28T14:36:13.086Z,16.73
2023-01-28T14:38:42.011Z,15.17
2023-01-28T14:41:09.823Z,10.97
2023-01-28T14:43:38.255Z,13.20
2023-01-28T14:46:13.411Z,9.10
2023-01-28T14:48:46.639Z,9.57
2023-01-28T14:51:20.263Z,9.43
2023-01-28T14:53:52.431Z,106.30
2023-01-28T14:56:19.616Z,104.03
2023-01-28T14:58:59.639Z,44.33
2023-01-28T15:01:28.111Z,26.53
2023-01-28T15:03:55.541Z,102.67
2023-01-28T15:06:26.992Z,195.37
2023-01-28T15:08:54.263Z,116.23
2023-01-28T15:11:23.931Z,65.30
2023-01-28T15:13:56.189Z,38.67
2023-01-28T15:16:25.211Z,39.03
2023-01-28T15:18:52.585Z,31.63
2023-01-28T15:21:24.046Z,32.13
2023-01-28T15:23:56.155Z,27.60
2023-01-28T15:26:25.408Z,24.33
2023-01-28T15:28:53.155Z,17.27
2023-01-28T15:31:24.807Z,15.47
2023-01-28T15:33:59.014Z,34.30
2023-01-28T15:36:27.034Z,39.20
2023-01-28T15:38:54.726Z,32.97
2023-01-28T15:41:23.818Z,21.90
2023-01-28T15:43:53.018Z,25.00
2023-01-28T15:46:20.638Z,23.83
2023-01-28T15:48:50.131Z,30.10
2023-01-28T15:51:26.858Z,25.07
2023-01-28T15:53:57.443Z,26.00
2023-01-28T15:56:28.884Z,32.50
2023-01-28T15:58:56.788Z,26.90
2023-01-28T16:01:24.462Z,25.73
2023-01-28T16:04:05.253Z,22.73
2023-01-28T16:06:34.272Z,20.90
2023-01-28T16:09:03.127Z,23.00
2023-01-28T16:11:35.281Z,30.50
2023-01-28T16:14:02.647Z,24.70
2023-01-28T16:16:34.926Z,21.77
2023-01-28T16:19:07.391Z,20.83
2023-01-28T16:21:37.933Z,19.27
2023-01-28T16:24:20.924Z,17.53
2023-01-28T16:26:56.617Z,15.10
2023-01-28T16:29:23.801Z,19.73
2023-01-28T16:31:52.901Z,18.93
2023-01-28T16:34:20.155Z,15.50
2023-01-28T16:36:47.336Z,14.97
2023-01-28T16:39:14.747Z,17.73
2023-01-28T16:41:44.506Z,21.87
2023-01-28T16:44:15.295Z,23.87
2023-01-28T16:46:42.820Z,21.67
2023-01-28T16:49:11.182Z,26.83
2023-01-28T16:51:39.566Z,22.83
2023-01-28T16:54:07.066Z,23.20
2023-01-28T16:56:49.944Z,28.87
2023-01-28T16:59:17.342Z,18.20
2023-01-28T17:01:45.280Z,19.73
2023-01-28T17:04:13.347Z,24.53
2023-01-28T17:06:43.086Z,26.00
2023-01-28T17:09:11.737Z,27.70
2023-01-28T17:11:40.695Z,27.30
2023-01-28T17:14:08.114Z,25.47
2023-01-28T17:16:35.384Z,26.07
2023-01-28T17:19:02.680Z,29.00
2023-01-28T17:21:29.850Z,26.60
2023-01-28T17:23:58.366Z,27.40
2023-01-28T17:26:26.841Z,34.17
2023-01-28T17:28:54.226Z,32.43
2023-01-28T17:31:22.420Z,41.50
2023-01-28T17:33:53.660Z,31.33
2023-01-28T17:36:20.967Z,46.33
2023-01-28T17:38:48.616Z,52.93
2023-01-28T17:41:17.527Z,42.70
2023-01-28T17:43:44.787Z,36.30
2023-01-28T17:46:14.967Z,35.77
2023-01-28T17:48:43.953Z,36.10
2023-01-28T17:51:11.214Z,28.33
2023-01-28T17:53:38.470Z,38.27
2023-01-28T17:56:05.843Z,29.83
2023-01-28T17:58:33.364Z,27.77
2023-01-28T18:01:00.546Z,23.93
2023-01-28T18:03:27.768Z,24.77
2023-01-28T18:06:01.183Z,27.90
2023-01-28T18:08:28.879Z,48.70
2023-01-28T18:10:57.436Z,43.73
2023-01-28T18:13:24.659Z,47.67
2023-01-28T18:15:51.814Z,35.20
2023-01-28T18:18:19.113Z,41.03
2023-01-28T18:20:46.332Z,33.63
2023-01-28T18:23:13.577Z,33.80
2023-01-28T18:25:40.775Z,39.90
2023-01-28T18:28:08.443Z,43.17
2023-01-28T18:30:36.002Z,43.43
2023-01-28T18:33:03.191Z,41.17
2023-01-28T18:35:30.461Z,33.00
2023-01-28T18:38:02.411Z,37.67
2023-01-28T18:40:29.998Z,35.07
2023-01-28T18:42:57.448Z,33.87
2023-01-28T18:45:24.653Z,34.07
2023-01-28T18:47:51.816Z,36.80
2023-01-28T18:50:19.098Z,37.63
2023-01-28T18:52:46.519Z,31.53
2023-01-28T18:55:13.759Z,29.77
2023-01-28T18:57:41.044Z,30.43
2023-01-28T19:00:08.670Z,41.57
2023-01-28T19:02:35.872Z,39.83
2023-01-28T19:05:03.485Z,33.87
2023-01-28T19:07:31.469Z,34.33
2023-01-28T19:09:58.670Z,40.43
2023-01-28T19:12:25.935Z,48.33
2023-01-28T19:14:53.157Z,36.53
2023-01-28T19:17:20.642Z,39.47
2023-01-28T19:19:47.996Z,35.10
2023-01-28T19:22:15.627Z,34.70
2023-01-28T19:24:43.127Z,37.37
2023-01-28T19:27:10.671Z,39.70
2023-01-28T19:29:37.939Z,43.20
2023-01-28T19:32:05.541Z,43.20
2023-01-28T19:34:32.938Z,37.77
2023-01-28T19:37:00.238Z,47.30
2023-01-28T19:39:27.564Z,46.47
2023-01-28T19:41:55.806Z,40.53
2023-01-28T19:44:23.251Z,42.23
2023-01-28T19:46:50.451Z,43.13
2023-01-28T19:49:17.776Z,45.63
2023-01-28T19:51:45.284Z,55.73
2023-01-28T19:54:12.641Z,48.70
2023-01-28T19:56:39.906Z,46.80
2023-01-28T19:59:07.235Z,43.50
2023-01-28T20:01:36.051Z,50.77
2023-01-28T20:04:05.089Z,53.20
2023-01-28T20:06:33.476Z,55.93
2023-01-28T20:09:15.308Z,66.00
2023-01-28T20:11:42.990Z,53.10
2023-01-28T20:14:10.198Z,46.73
2023-01-28T20:16:37.690Z,52.93
2023-01-28T20:19:06.440Z,48.10
2023-01-28T20:21:36.154Z,48.53
2023-01-28T20:24:04.728Z,49.23
2023-01-28T20:26:33.034Z,48.43
2023-01-28T20:29:01.782Z,50.17
2023-01-28T20:31:29.401Z,43.83
2023-01-28T20:33:56.709Z,49.67
2023-01-28T20:36:24.932Z,51.00
2023-01-28T20:38:52.618Z,57.83
2023-01-28T20:41:21.063Z,50.70
2023-01-28T20:43:49.185Z,50.87
2023-01-28T20:46:21.124Z,48.67
2023-01-28T20:48:49.128Z,37.03
2023-01-28T20:51:18.477Z,44.87
2023-01-28T20:53:46.430Z,85.43
2023-01-28T20:56:14.522Z,134.70
2023-01-28T20:58:42.708Z,97.60
2023-01-28T21:01:17.277Z,72.43
2023-01-28T21:03:44.844Z,57.40
2023-01-28T21:06:12.171Z,45.60
2023-01-28T21:08:39.466Z,51.10
2023-01-28T21:11:07.858Z,36.27
2023-01-28T21:13:35.622Z,37.37
2023-01-28T21:16:02.902Z,36.23
2023-01-28T21:18:30.478Z,27.80
2023-01-28T21:21:03.058Z,29.50
2023-01-28T21:23:30.639Z,29.40
2023-01-28T21:26:01.463Z,40.07
2023-01-28T21:28:28.713Z,29.73
2023-01-28T21:30:55.969Z,32.30
2023-01-28T21:33:23.281Z,31.87
2023-01-28T21:35:50.479Z,35.97
2023-01-28T21:38:17.731Z,32.17
2023-01-28T21:40:45.020Z,36.23
2023-01-28T21:43:13.402Z,36.47
2023-01-28T21:45:41.399Z,36.60
2023-01-28T21:48:08.587Z,32.97
2023-01-28T21:50:55.700Z,39.03
2023-01-28T21:53:22.888Z,41.87
2023-01-28T21:55:50.097Z,48.50
2023-01-28T21:58:35.912Z,41.07
2023-01-28T22:01:08.606Z,38.17
2023-01-28T22:03:35.853Z,41.77
2023-01-28T22:06:03.028Z,57.37
2023-01-28T22:08:30.268Z,51.20
2023-01-28T22:10:57.408Z,42.23
2023-01-28T22:13:24.536Z,39.73
2023-01-28T22:15:51.718Z,38.43
2023-01-28T22:18:18.880Z,33.67
2023-01-28T22:20:46.013Z,27.83
2023-01-28T22:23:13.195Z,33.20
2023-01-28T22:25:40.383Z,28.27
2023-01-28T22:28:07.549Z,30.47
2023-01-28T22:30:34.828Z,28.00
2023-01-28T22:33:01.974Z,29.60
2023-01-28T22:35:30.845Z,24.13
2023-01-28T22:37:58.089Z,28.57
2023-01-28T22:40:25.253Z,29.87
2023-01-28T22:42:52.394Z,29.20
2023-01-28T22:45:19.638Z,27.20
2023-01-28T22:47:48.357Z,28.13
2023-01-28T22:50:16.021Z,29.13
2023-01-28T22:52:43.408Z,26.97
2023-01-28T22:55:11.187Z,32.93
2023-01-28T22:57:38.353Z,29.17
2023-01-28T23:00:09.707Z,27.47
2023-01-28T23:02:38.157Z,28.43
2023-01-28T23:05:06.246Z,27.10
2023-01-28T23:07:33.454Z,21.47
2023-01-28T23:10:00.670Z,22.37
2023-01-28T23:12:27.921Z,52.13
2023-01-28T23:15:13.614Z,45.47
2023-01-28T23:17:59.344Z,34.83
2023-01-28T23:20:45.521Z,24.87
2023-01-28T23:23:35.599Z,23.97
2023-01-28T23:26:02.853Z,17.70
2023-01-28T23:28:30.246Z,18.10
2023-01-28T23:30:57.705Z,24.57
2023-01-28T23:33:24.933Z,20.63
2023-01-28T23:35:52.089Z,28.77
2023-01-28T23:38:19.236Z,20.93
2023-01-28T23:40:46.374Z,19.23
2023-01-28T23:43:13.626Z,18.40
2023-01-28T23:45:40.806Z,21.60
2023-01-28T23:48:08.050Z,24.30
2023-01-28T23:50:35.193Z,22.80
2023-01-28T23:53:02.501Z,17.80
2023-01-28T23:55:29.770Z,23.13
2023-01-28T23:57:57.021Z,22.27
